createdAt,value
2019-04-22T00:00:49.307Z,4.92
2019-04-22T00:01:58.116Z,4.33
2019-04-22T00:03:02.749Z,4.87
2019-04-22T00:04:09.027Z,5.37
2019-04-22T00:05:19.115Z,4.87
2019-04-22T00:06:39.038Z,4.87
2019-04-22T00:07:43.273Z,5.47
2019-04-22T00:08:56.034Z,5.55
2019-04-22T00:10:04.864Z,5.08
2019-04-22T00:11:13.236Z,4.72
2019-04-22T00:12:14.607Z,4.80
2019-04-22T00:13:18.613Z,4.90
2019-04-22T00:14:17.876Z,5.05
2019-04-22T00:15:27.249Z,4.60
2019-04-22T00:16:47.266Z,4.90
2019-04-22T00:19:11.552Z,4.50
2019-04-22T00:19:57.615Z,4.97
2019-04-22T00:21:07.216Z,5.17
2019-04-22T00:22:07.800Z,4.70
2019-04-22T00:23:16.957Z,4.97
2019-04-22T00:24:19.594Z,4.65
2019-04-22T00:25:26.526Z,4.60
2019-04-22T00:26:37.399Z,4.50
2019-04-22T00:27:40.579Z,4.70
2019-04-22T00:28:49.995Z,5.23
2019-04-22T00:31:05.058Z,4.70
2019-04-22T00:32:14.441Z,5.20
2019-04-22T00:33:24.489Z,5.28
2019-04-22T00:34:30.199Z,5.30
2019-04-22T00:35:35.378Z,4.92
2019-04-22T00:36:41.907Z,5.13
2019-04-22T00:37:53.743Z,5.40
2019-04-22T00:39:03.358Z,5.42
2019-04-22T00:39:57.438Z,5.15
2019-04-22T00:41:05.730Z,5.37
2019-04-22T00:42:16.452Z,4.85
2019-04-22T00:43:19.655Z,5.12
2019-04-22T00:44:35.293Z,5.37
2019-04-22T00:45:33.128Z,5.28
2019-04-22T00:46:39.701Z,5.28
2019-04-22T00:48:02.547Z,5.60
2019-04-22T00:48:57.940Z,5.03
2019-04-22T00:51:06.149Z,5.30
2019-04-22T00:52:09.271Z,4.85
2019-04-22T00:53:16.347Z,5.30
2019-04-22T00:54:26.064Z,4.85
2019-04-22T00:55:25.591Z,5.42
2019-04-22T00:56:28.290Z,5.08
2019-04-22T00:57:34.893Z,5.35
2019-04-22T00:58:41.232Z,5.17
2019-04-22T00:59:55.409Z,5.40
2019-04-22T01:00:56.077Z,5.03
2019-04-22T01:02:00.905Z,5.85
2019-04-22T01:03:18.054Z,5.10
2019-04-22T01:04:20.431Z,5.35
2019-04-22T01:05:21.937Z,5.62
2019-04-22T01:07:30.739Z,5.10
2019-04-22T01:08:46.832Z,5.90
2019-04-22T01:09:46.398Z,5.07
2019-04-22T01:10:54.099Z,5.97
2019-04-22T01:11:56.288Z,5.47
2019-04-22T01:13:04.883Z,5.42
2019-04-22T01:14:09.287Z,5.30
2019-04-22T01:15:20.835Z,5.50
2019-04-22T01:16:23.801Z,5.87
2019-04-22T01:17:26.981Z,5.30
2019-04-22T01:18:31.082Z,5.12
2019-04-22T01:19:45.083Z,5.43
2019-04-22T01:21:00.904Z,5.80
2019-04-22T01:22:06.803Z,5.37
2019-04-22T01:22:52.131Z,5.45
2019-04-22T01:23:57.696Z,5.37
2019-04-22T01:25:03.575Z,6.12
2019-04-22T01:26:09.911Z,5.90
2019-04-22T01:27:11.694Z,5.30
2019-04-22T01:28:18.070Z,5.33
2019-04-22T01:29:22.580Z,5.10
2019-04-22T01:30:26.624Z,5.63
2019-04-22T01:31:25.933Z,5.80
2019-04-22T01:32:36.104Z,5.42
2019-04-22T01:33:42.065Z,5.65
2019-04-22T01:34:57.994Z,5.37
2019-04-22T01:36:08.127Z,5.30
2019-04-22T01:37:07.600Z,5.23
2019-04-22T01:38:18.973Z,5.75
2019-04-22T01:39:31.947Z,5.22
2019-04-22T01:40:42.920Z,5.70
2019-04-22T01:42:58.339Z,5.22
2019-04-22T01:44:10.975Z,5.83
2019-04-22T01:45:12.093Z,5.87
2019-04-22T01:46:08.250Z,5.58
2019-04-22T01:47:23.235Z,6.37
2019-04-22T01:48:28.477Z,5.72
2019-04-22T01:49:27.297Z,5.72
2019-04-22T01:50:30.745Z,6.33
2019-04-22T01:51:54.791Z,5.70
2019-04-22T01:52:46.933Z,6.08
2019-04-22T01:54:00.460Z,6.33
2019-04-22T01:54:55.607Z,5.83
2019-04-22T01:56:08.889Z,5.80
2019-04-22T01:57:03.617Z,6.15
2019-04-22T01:58:11.096Z,6.17
2019-04-22T01:59:15.698Z,6.08
2019-04-22T02:00:32.527Z,5.95
2019-04-22T02:01:41.605Z,5.67
2019-04-22T02:03:52.028Z,5.80
2019-04-22T02:04:53.202Z,6.22
2019-04-22T02:05:59.266Z,6.17
2019-04-22T02:07:02.083Z,5.67
2019-04-22T02:08:14.181Z,5.85
2019-04-22T02:09:22.554Z,5.20
2019-04-22T02:10:30.148Z,5.85
2019-04-22T02:11:37.307Z,5.45
2019-04-22T02:12:35.463Z,5.65
2019-04-22T02:13:46.300Z,6.33
2019-04-22T02:14:44.408Z,6.20
2019-04-22T02:15:52.748Z,6.30
2019-04-22T02:17:05.180Z,6.30
2019-04-22T02:18:11.487Z,6.17
2019-04-22T02:19:18.400Z,5.92
2019-04-22T02:20:31.548Z,5.97
2019-04-22T02:21:23.446Z,6.10
2019-04-22T02:22:44.303Z,6.28
2019-04-22T02:24:46.737Z,6.47
2019-04-22T02:25:49.459Z,6.40
2019-04-22T02:26:51.917Z,6.12
2019-04-22T02:27:56.512Z,6.47
2019-04-22T02:29:01.568Z,6.08
2019-04-22T02:30:05.988Z,6.00
2019-04-22T02:34:39.710Z,6.65
2019-04-22T02:35:57.497Z,6.27
2019-04-22T02:36:45.225Z,6.62
2019-04-22T02:37:54.731Z,6.50
2019-04-22T02:39:15.312Z,6.65
2019-04-22T02:41:22.175Z,6.37
2019-04-22T02:42:13.942Z,6.78
2019-04-22T02:43:35.033Z,6.35
2019-04-22T02:44:28.758Z,6.33
2019-04-22T02:46:00.056Z,6.05
2019-04-22T02:49:01.591Z,6.77
2019-04-22T02:50:01.850Z,6.55
2019-04-22T02:52:17.744Z,6.42
2019-04-22T02:53:41.866Z,6.58
2019-04-22T02:54:38.301Z,6.10
2019-04-22T02:55:35.920Z,6.90
2019-04-22T02:57:39.969Z,6.60
2019-04-22T03:00:01.188Z,6.65
2019-04-22T03:01:06.084Z,6.40
2019-04-22T03:02:07.655Z,6.70
2019-04-22T03:03:20.827Z,7.33
2019-04-22T03:05:40.107Z,7.10
2019-04-22T03:06:38.331Z,6.20
2019-04-22T03:07:41.097Z,6.78
2019-04-22T03:08:51.722Z,7.37
2019-04-22T03:09:51.796Z,6.80
2019-04-22T03:12:17.790Z,6.40
2019-04-22T03:13:09.570Z,7.12
2019-04-22T03:15:13.556Z,6.90
2019-04-22T03:19:50.669Z,6.97
2019-04-22T03:20:56.772Z,6.57
2019-04-22T03:21:54.848Z,6.50
2019-04-22T03:23:13.728Z,6.67
2019-04-22T03:24:15.697Z,6.25
2019-04-22T03:25:43.437Z,6.42
2019-04-22T03:27:35.278Z,7.17
2019-04-22T03:28:37.057Z,7.05
2019-04-22T03:32:07.529Z,6.00
2019-04-22T03:34:05.098Z,6.47
2019-04-22T03:35:19.359Z,5.93
2019-04-22T03:36:29.598Z,6.70
2019-04-22T03:38:20.213Z,6.28
2019-04-22T03:39:33.504Z,6.65
2019-04-22T03:40:25.075Z,6.80
2019-04-22T03:41:36.764Z,6.95
2019-04-22T03:42:25.327Z,6.97
2019-04-22T03:43:42.469Z,7.17
2019-04-22T03:44:38.440Z,5.92
2019-04-22T03:45:58.786Z,7.13
2019-04-22T03:47:02.399Z,6.10
2019-04-22T03:47:57.760Z,6.30
2019-04-22T03:50:22.687Z,7.25
2019-04-22T03:51:33.772Z,6.80
2019-04-22T03:52:24.716Z,6.22
2019-04-22T03:54:39.150Z,6.67
2019-04-22T03:55:39.029Z,6.58
2019-04-22T03:59:07.572Z,6.75
2019-04-22T04:00:15.736Z,6.20
2019-04-22T04:01:18.740Z,6.33
2019-04-22T04:02:21.514Z,6.42
2019-04-22T04:06:52.551Z,7.37
2019-04-22T04:07:59.907Z,6.80
2019-04-22T04:08:51.542Z,6.50
2019-04-22T04:10:01.048Z,6.90
2019-04-22T04:13:20.405Z,6.97
2019-04-22T04:14:26.877Z,6.95
2019-04-22T04:16:42.452Z,6.90
2019-04-22T04:17:44.467Z,6.92
2019-04-22T04:20:10.803Z,6.80
2019-04-22T04:21:12.497Z,7.25
2019-04-22T04:22:16.784Z,6.83
2019-04-22T04:23:27.193Z,7.03
2019-04-22T04:24:42.239Z,6.25
2019-04-22T04:25:42.880Z,6.62
2019-04-22T04:28:52.611Z,6.20
2019-04-22T04:30:00.198Z,7.30
2019-04-22T04:30:45.974Z,6.40
2019-04-22T04:32:05.346Z,7.60
2019-04-22T04:33:06.907Z,6.62
2019-04-22T04:34:22.031Z,7.50
2019-04-22T04:35:28.107Z,6.30
2019-04-22T04:37:40.949Z,6.97
2019-04-22T04:38:38.811Z,6.85
2019-04-22T04:39:47.029Z,6.90
2019-04-22T04:40:48.688Z,6.80
2019-04-22T04:42:20.276Z,6.83
2019-04-22T04:42:58.682Z,6.95
2019-04-22T04:44:31.721Z,6.72
2019-04-22T04:46:24.242Z,6.62
2019-04-22T04:47:35.372Z,6.50
2019-04-22T04:48:39.123Z,6.75
2019-04-22T04:49:43.905Z,6.80
2019-04-22T04:50:38.574Z,6.90
2019-04-22T04:53:06.335Z,6.93
2019-04-22T04:54:08.694Z,7.50
2019-04-22T04:56:30.370Z,7.00
2019-04-22T04:57:23.363Z,7.35
2019-04-22T04:59:48.340Z,6.75
2019-04-22T05:01:49.267Z,6.92
2019-04-22T05:02:58.442Z,7.93
2019-04-22T05:03:57.794Z,7.60
2019-04-22T05:05:02.935Z,7.60
2019-04-22T05:06:09.185Z,7.47
2019-04-22T05:14:50.550Z,7.27
2019-04-22T05:16:14.764Z,7.08
2019-04-22T05:17:03.980Z,7.15
2019-04-22T05:18:14.270Z,7.22
2019-04-22T05:19:15.974Z,7.35
2019-04-22T05:20:42.973Z,7.53
2019-04-22T05:22:35.690Z,7.00
2019-04-22T05:23:40.523Z,7.15
2019-04-22T05:24:44.082Z,7.60
2019-04-22T05:25:41.365Z,7.60
2019-04-22T05:26:56.738Z,7.22
2019-04-22T05:28:03.611Z,7.47
2019-04-22T05:29:06.569Z,7.17
2019-04-22T05:30:23.504Z,7.20
2019-04-22T05:31:16.105Z,7.03
2019-04-22T05:32:24.724Z,6.62
2019-04-22T05:33:32.312Z,7.10
2019-04-22T05:34:35.134Z,7.35
2019-04-22T05:35:37.972Z,6.85
2019-04-22T05:36:47.661Z,7.17
2019-04-22T05:37:56.667Z,7.05
2019-04-22T05:39:01.853Z,7.15
2019-04-22T05:40:14.977Z,6.95
2019-04-22T05:41:14.813Z,7.00
2019-04-22T05:42:14.269Z,6.83
2019-04-22T05:43:21.288Z,7.47
2019-04-22T05:44:32.523Z,7.10
2019-04-22T05:45:31.372Z,7.25
2019-04-22T05:46:39.543Z,7.43
2019-04-22T05:47:46.377Z,7.07
2019-04-22T05:48:53.863Z,6.80
2019-04-22T05:49:54.615Z,7.10
2019-04-22T05:51:02.409Z,6.85
2019-04-22T05:52:11.147Z,7.08
2019-04-22T05:53:13.759Z,6.83
2019-04-22T05:54:22.902Z,6.75
2019-04-22T05:55:41.967Z,6.78
2019-04-22T05:56:37.510Z,6.63
2019-04-22T05:57:42.671Z,7.30
2019-04-22T05:58:56.578Z,6.35
2019-04-22T05:59:57.308Z,6.60
2019-04-22T06:01:31.670Z,6.83
2019-04-22T06:02:24.051Z,6.12
2019-04-22T06:03:20.979Z,6.72
2019-04-22T06:04:23.165Z,6.25
2019-04-22T06:06:36.838Z,6.27
2019-04-22T06:07:38.534Z,6.50
2019-04-22T06:08:51.246Z,6.05
2019-04-22T06:10:02.344Z,6.33
2019-04-22T06:11:00.472Z,6.03
2019-04-22T06:11:58.870Z,6.55
2019-04-22T06:13:13.849Z,6.37
2019-04-22T06:14:13.938Z,5.72
2019-04-22T06:15:24.269Z,6.03
2019-04-22T06:16:38.021Z,6.17
2019-04-22T06:18:52.787Z,5.77
2019-04-22T06:19:55.904Z,5.37
2019-04-22T06:21:00.574Z,5.92
2019-04-22T06:22:06.424Z,6.10
2019-04-22T06:23:12.624Z,5.95
2019-04-22T06:25:27.817Z,6.62
2019-04-22T06:26:40.656Z,6.05
2019-04-22T06:27:37.143Z,6.37
2019-04-22T06:28:40.678Z,5.80
2019-04-22T06:29:41.488Z,5.80
2019-04-22T06:31:00.011Z,5.95
2019-04-22T06:32:22.312Z,6.30
2019-04-22T06:33:13.221Z,6.10
2019-04-22T06:35:23.781Z,5.92
2019-04-22T06:36:27.623Z,6.25
2019-04-22T06:37:33.978Z,5.70
2019-04-22T06:40:59.686Z,6.08
2019-04-22T06:41:56.530Z,5.67
2019-04-22T06:43:05.632Z,5.58
2019-04-22T06:44:16.097Z,5.55
2019-04-22T06:46:20.826Z,5.62
2019-04-22T06:47:40.176Z,5.87
2019-04-22T06:48:29.500Z,5.24
2019-04-22T06:49:35.532Z,5.50
2019-04-22T06:50:48.780Z,5.30
2019-04-22T06:52:07.777Z,5.90
2019-04-22T06:52:57.204Z,5.37
2019-04-22T06:54:01.731Z,5.40
2019-04-22T06:55:13.171Z,5.10
2019-04-22T06:56:14.275Z,4.85
2019-04-22T06:57:24.300Z,4.70
2019-04-22T06:58:20.128Z,5.28
2019-04-22T06:59:33.018Z,5.78
2019-04-22T07:00:36.609Z,5.23
2019-04-22T07:01:43.206Z,5.03
2019-04-22T07:03:13.797Z,5.20
2019-04-22T07:05:00.986Z,5.70
2019-04-22T07:06:11.199Z,5.10
2019-04-22T07:07:12.279Z,4.78
2019-04-22T07:09:33.741Z,4.58
2019-04-22T07:10:35.055Z,5.00
2019-04-22T07:11:36.723Z,5.13
2019-04-22T07:12:41.820Z,5.03
2019-04-22T07:13:50.362Z,4.85
2019-04-22T07:14:55.902Z,4.70
2019-04-22T07:16:20.797Z,4.65
2019-04-22T07:17:07.345Z,4.78
2019-04-22T07:18:18.518Z,4.97
2019-04-22T07:19:22.820Z,4.78
2019-04-22T07:21:30.583Z,5.00
2019-04-22T07:22:43.605Z,4.40
2019-04-22T07:23:53.089Z,5.57
2019-04-22T07:24:56.131Z,4.72
2019-04-22T07:25:52.177Z,5.25
2019-04-22T07:27:04.659Z,4.55
2019-04-22T07:28:11.250Z,4.83
2019-04-22T07:29:17.582Z,5.20
2019-04-22T07:30:22.042Z,4.90
2019-04-22T07:31:45.060Z,4.80
2019-04-22T07:32:53.725Z,4.47
2019-04-22T07:33:37.820Z,4.60
2019-04-22T07:34:50.380Z,5.00
2019-04-22T07:36:59.009Z,5.03
2019-04-22T07:38:06.150Z,4.78
2019-04-22T07:39:09.680Z,4.35
2019-04-22T07:40:13.796Z,5.10
2019-04-22T07:41:25.572Z,4.95
2019-04-22T07:42:26.242Z,4.80
2019-04-22T07:43:41.129Z,4.53
2019-04-22T07:44:38.495Z,4.50
2019-04-22T07:45:45.714Z,4.90
2019-04-22T07:46:59.291Z,4.45
2019-04-22T07:48:02.615Z,5.00
2019-04-22T07:49:01.921Z,4.75
2019-04-22T07:50:13.130Z,4.60
2019-04-22T07:51:15.491Z,4.60
2019-04-22T07:52:23.198Z,5.30
2019-04-22T07:53:21.660Z,5.30
2019-04-22T07:54:39.689Z,4.97
2019-04-22T07:55:38.911Z,4.43
2019-04-22T07:56:48.733Z,5.07
2019-04-22T07:58:05.069Z,5.12
2019-04-22T07:58:55.601Z,4.60
2019-04-22T08:00:03.055Z,4.20
2019-04-22T08:01:10.172Z,4.85
2019-04-22T08:02:16.031Z,4.62
2019-04-22T08:04:34.440Z,4.78
2019-04-22T08:06:46.085Z,4.63
2019-04-22T08:07:49.247Z,4.90
2019-04-22T08:08:58.390Z,4.87
2019-04-22T08:11:08.596Z,4.22
2019-04-22T08:12:06.656Z,4.58
2019-04-22T08:13:21.159Z,4.53
2019-04-22T08:14:30.078Z,4.55
2019-04-22T08:15:32.358Z,4.62
2019-04-22T08:16:38.139Z,4.47
2019-04-22T08:18:47.429Z,4.75
2019-04-22T08:19:55.979Z,4.37
2019-04-22T08:22:21.407Z,5.03
2019-04-22T08:23:16.430Z,4.67
2019-04-22T08:24:26.651Z,4.45
2019-04-22T08:25:24.760Z,4.10
2019-04-22T08:26:32.209Z,4.33
2019-04-22T08:27:41.393Z,4.33
2019-04-22T08:28:47.827Z,4.33
2019-04-22T08:29:59.813Z,4.92
2019-04-22T08:30:59.686Z,4.10
2019-04-22T08:32:01.170Z,4.35
2019-04-22T08:33:18.707Z,3.95
2019-04-22T08:35:29.575Z,4.62
2019-04-22T08:37:47.541Z,4.30
2019-04-22T08:40:03.889Z,4.30
2019-04-22T08:42:34.786Z,4.25
2019-04-22T08:43:36.484Z,4.08
2019-04-22T08:44:54.850Z,4.35
2019-04-22T08:45:44.347Z,4.17
2019-04-22T08:46:48.895Z,3.60
2019-04-22T08:47:47.911Z,4.25
2019-04-22T08:50:07.648Z,4.20
2019-04-22T08:51:15.074Z,4.25
2019-04-22T08:52:26.067Z,4.35
2019-04-22T08:53:29.187Z,3.83
2019-04-22T08:54:31.212Z,3.82
2019-04-22T08:55:45.066Z,4.17
2019-04-22T08:56:45.667Z,4.10
2019-04-22T08:58:11.252Z,4.30
2019-04-22T08:58:57.379Z,3.87
2019-04-22T09:00:02.376Z,4.03
2019-04-22T09:01:15.459Z,4.08
2019-04-22T09:02:20.199Z,3.58
2019-04-22T09:03:18.784Z,4.28
2019-04-22T09:04:16.634Z,3.90
2019-04-22T09:07:02.446Z,3.63
2019-04-22T09:07:46.543Z,4.13
2019-04-22T09:08:55.184Z,4.33
2019-04-22T09:09:55.771Z,3.92
2019-04-22T09:11:03.627Z,4.08
2019-04-22T09:12:07.663Z,3.85
2019-04-22T09:13:14.543Z,4.12
2019-04-22T09:14:26.640Z,3.80
2019-04-22T09:15:30.872Z,4.12
2019-04-22T09:17:41.339Z,4.50
2019-04-22T09:18:48.674Z,3.63
2019-04-22T09:19:55.920Z,3.77
2019-04-22T09:21:08.863Z,3.92
2019-04-22T09:22:08.366Z,4.00
2019-04-22T09:23:21.628Z,4.15
2019-04-22T09:24:16.742Z,4.05
2019-04-22T09:25:16.673Z,4.00
2019-04-22T09:26:34.717Z,4.12
2019-04-22T09:27:39.912Z,3.75
2019-04-22T09:28:44.338Z,3.87
2019-04-22T09:29:53.720Z,3.70
2019-04-22T09:30:56.881Z,3.85
2019-04-22T09:32:06.894Z,3.72
2019-04-22T09:33:09.932Z,3.90
2019-04-22T09:34:14.050Z,4.10
2019-04-22T09:35:16.025Z,3.72
2019-04-22T09:36:29.388Z,3.60
2019-04-22T09:37:34.555Z,3.70
2019-04-22T09:38:38.404Z,3.70
2019-04-22T09:39:41.056Z,3.53
2019-04-22T09:40:46.923Z,3.53
2019-04-22T09:41:53.871Z,3.50
2019-04-22T09:43:17.098Z,3.77
2019-04-22T09:44:02.410Z,3.70
2019-04-22T09:45:13.068Z,4.33
2019-04-22T09:46:22.718Z,4.00
2019-04-22T09:47:25.911Z,3.77
2019-04-22T09:48:41.740Z,3.98
2019-04-22T09:49:44.563Z,3.50
2019-04-22T09:50:48.070Z,3.60
2019-04-22T09:51:54.007Z,3.65
2019-04-22T09:52:54.914Z,3.70
2019-04-22T09:54:12.507Z,3.75
2019-04-22T09:56:13.677Z,3.67
2019-04-22T09:57:21.144Z,3.72
2019-04-22T09:58:23.540Z,3.77
2019-04-22T09:59:32.232Z,3.72
2019-04-22T10:00:46.171Z,3.60
2019-04-22T10:01:55.104Z,3.53
2019-04-22T10:02:55.907Z,4.10
2019-04-22T10:05:07.518Z,3.70
2019-04-22T10:06:16.469Z,3.87
2019-04-22T10:07:19.828Z,3.90
2019-04-22T10:08:24.592Z,3.72
2019-04-22T10:09:42.413Z,3.60
2019-04-22T10:10:35.027Z,3.70
2019-04-22T10:11:47.066Z,3.50
2019-04-22T10:12:44.852Z,3.83
2019-04-22T10:13:54.198Z,3.47
2019-04-22T10:14:54.229Z,3.60
2019-04-22T10:16:13.089Z,3.45
2019-04-22T10:17:06.700Z,3.35
2019-04-22T10:18:19.320Z,3.72
2019-04-22T10:19:23.160Z,4.17
2019-04-22T10:20:32.767Z,3.62
2019-04-22T10:22:46.030Z,3.50
2019-04-22T10:23:50.710Z,3.42
2019-04-22T10:24:56.899Z,2.80
2019-04-22T10:26:04.586Z,3.60
2019-04-22T10:27:01.992Z,3.80
2019-04-22T10:28:14.867Z,3.42
2019-04-22T10:29:18.351Z,3.20
2019-04-22T10:30:33.576Z,3.35
2019-04-22T10:32:39.916Z,3.07
2019-04-22T10:33:38.383Z,3.03
2019-04-22T10:34:36.029Z,3.30
2019-04-22T10:35:32.951Z,3.50
2019-04-22T10:36:37.896Z,3.35
2019-04-22T10:37:43.597Z,3.45
2019-04-22T10:38:48.681Z,2.83
2019-04-22T10:39:58.562Z,3.37
2019-04-22T10:40:58.877Z,3.33
2019-04-22T10:42:03.047Z,3.30
2019-04-22T10:43:09.601Z,2.83
2019-04-22T10:44:15.303Z,3.07
2019-04-22T10:45:21.968Z,3.10
2019-04-22T10:46:26.395Z,3.65
2019-04-22T10:47:31.973Z,2.95
2019-04-22T10:48:36.703Z,3.17
2019-04-22T10:49:42.457Z,3.47
2019-04-22T10:50:48.797Z,3.00
2019-04-22T10:51:53.047Z,3.37
2019-04-22T10:52:59.370Z,3.08
2019-04-22T10:54:05.210Z,3.20
2019-04-22T10:55:11.597Z,2.90
2019-04-22T10:56:16.956Z,3.10
2019-04-22T10:57:23.924Z,2.90
2019-04-22T10:58:28.616Z,2.98
2019-04-22T10:59:34.361Z,3.52
2019-04-22T11:00:39.738Z,2.90
2019-04-22T11:01:44.518Z,3.45
2019-04-22T11:02:49.904Z,2.83
2019-04-22T11:03:55.555Z,2.93
2019-04-22T11:04:59.720Z,3.42
2019-04-22T11:06:05.453Z,2.96
2019-04-22T11:07:12.769Z,3.20
2019-04-22T11:08:26.064Z,3.00
2019-04-22T11:09:23.480Z,3.10
2019-04-22T11:10:46.826Z,2.83
2019-04-22T11:11:45.541Z,3.08
2019-04-22T11:12:41.467Z,2.80
2019-04-22T11:13:47.479Z,3.30
2019-04-22T11:14:51.876Z,3.30
2019-04-22T11:15:56.174Z,3.17
2019-04-22T11:17:02.368Z,3.40
2019-04-22T11:18:07.403Z,2.87
2019-04-22T11:19:11.936Z,3.40
2019-04-22T11:20:17.533Z,2.87
2019-04-22T11:21:23.234Z,2.80
2019-04-22T11:22:31.332Z,3.42
2019-04-22T11:23:34.358Z,2.83
2019-04-22T11:24:39.148Z,2.80
2019-04-22T11:25:43.923Z,2.90
2019-04-22T11:26:49.310Z,3.37
2019-04-22T11:27:53.783Z,3.10
2019-04-22T11:28:59.398Z,3.00
2019-04-22T11:30:05.786Z,3.52
2019-04-22T11:31:10.504Z,2.70
2019-04-22T11:32:14.962Z,2.90
2019-04-22T11:33:20.647Z,2.80
2019-04-22T11:34:25.037Z,2.70
2019-04-22T11:35:29.893Z,3.08
2019-04-22T11:36:34.578Z,2.90
2019-04-22T11:37:38.841Z,3.02
2019-04-22T11:38:49.754Z,3.08
2019-04-22T11:40:04.616Z,3.00
2019-04-22T11:40:57.820Z,3.22
2019-04-22T11:42:02.406Z,2.70
2019-04-22T11:43:07.984Z,2.67
2019-04-22T11:44:12.321Z,2.87
2019-04-22T11:45:17.378Z,2.90
2019-04-22T11:46:23.095Z,2.60
2019-04-22T11:47:27.523Z,2.90
2019-04-22T11:48:31.771Z,2.85
2019-04-22T11:49:36.253Z,2.87
2019-04-22T11:50:41.907Z,2.75
2019-04-22T11:51:47.855Z,2.70
2019-04-22T11:52:53.136Z,3.00
2019-04-22T11:53:58.677Z,2.70
2019-04-22T11:55:04.347Z,3.25
2019-04-22T11:56:08.957Z,2.77
2019-04-22T11:57:13.141Z,2.50
2019-04-22T11:58:17.333Z,2.83
2019-04-22T11:59:22.635Z,2.83
2019-04-22T12:00:28.468Z,3.15
2019-04-22T12:01:33.019Z,2.60
2019-04-22T12:02:38.713Z,3.05
2019-04-22T12:03:44.231Z,2.75
2019-04-22T12:04:49.751Z,2.87
2019-04-22T12:05:55.451Z,2.45
2019-04-22T12:07:00.222Z,3.00
2019-04-22T12:08:05.095Z,2.80
2019-04-22T12:09:12.221Z,2.63
2019-04-22T12:10:28.544Z,2.33
2019-04-22T12:11:26.293Z,2.90
2019-04-22T12:12:31.929Z,2.92
2019-04-22T12:13:36.186Z,2.70
2019-04-22T12:14:40.418Z,2.55
2019-04-22T12:15:44.961Z,2.95
2019-04-22T12:16:49.737Z,2.70
2019-04-22T12:17:55.251Z,2.70
2019-04-22T12:19:00.876Z,2.72
2019-04-22T12:20:10.452Z,2.62
2019-04-22T12:21:15.286Z,2.63
2019-04-22T12:22:20.947Z,2.60
2019-04-22T12:23:25.299Z,2.37
2019-04-22T12:24:30.252Z,2.98
2019-04-22T12:25:47.686Z,2.97
2019-04-22T12:26:40.489Z,2.80
2019-04-22T12:27:45.305Z,2.52
2019-04-22T12:28:50.993Z,2.60
2019-04-22T12:29:56.625Z,2.90
2019-04-22T12:31:01.646Z,2.75
2019-04-22T12:32:07.405Z,2.65
2019-04-22T12:33:14.542Z,2.80
2019-04-22T12:34:17.570Z,2.70
2019-04-22T12:35:22.143Z,2.60
2019-04-22T12:36:26.665Z,3.00
2019-04-22T12:37:39.896Z,2.65
2019-04-22T12:38:37.764Z,2.47
2019-04-22T12:39:43.318Z,2.80
2019-04-22T12:40:56.435Z,2.77
2019-04-22T12:41:56.217Z,2.87
2019-04-22T12:43:04.128Z,2.50
2019-04-22T12:44:07.540Z,2.40
2019-04-22T12:45:12.183Z,2.33
2019-04-22T12:46:16.511Z,2.70
2019-04-22T12:47:24.378Z,2.50
2019-04-22T12:48:28.619Z,2.70
2019-04-22T12:49:36.639Z,2.43
2019-04-22T12:50:43.447Z,2.27
2019-04-22T12:51:45.350Z,2.87
2019-04-22T12:52:58.880Z,2.60
2019-04-22T12:53:59.392Z,2.73
2019-04-22T12:55:05.956Z,2.50
2019-04-22T12:56:12.677Z,2.50
2019-04-22T12:57:16.906Z,1.97
2019-04-22T12:58:25.461Z,2.60
2019-04-22T12:59:29.965Z,2.50
2019-04-22T13:00:36.306Z,2.72
2019-04-22T13:01:40.644Z,2.37
2019-04-22T13:02:45.077Z,2.27
2019-04-22T13:03:50.187Z,2.75
2019-04-22T13:04:56.186Z,2.60
2019-04-22T13:06:01.701Z,2.20
2019-04-22T13:07:06.135Z,2.10
2019-04-22T13:08:11.618Z,2.30
2019-04-22T13:09:17.725Z,2.62
2019-04-22T13:10:22.016Z,2.42
2019-04-22T13:11:32.045Z,2.72
2019-04-22T13:12:33.116Z,2.45
2019-04-22T13:13:38.620Z,2.40
2019-04-22T13:14:43.426Z,2.37
2019-04-22T13:15:48.968Z,2.70
2019-04-22T13:16:53.555Z,2.50
2019-04-22T13:18:05.745Z,2.27
2019-04-22T13:19:11.302Z,2.30
2019-04-22T13:20:15.080Z,2.13
2019-04-22T13:21:18.788Z,2.27
2019-04-22T13:22:23.252Z,2.47
2019-04-22T13:23:27.603Z,1.98
2019-04-22T13:24:32.076Z,1.87
2019-04-22T13:25:36.677Z,2.27
2019-04-22T13:26:45.161Z,1.85
2019-04-22T13:27:51.151Z,2.22
2019-04-22T13:28:56.835Z,1.95
2019-04-22T13:30:04.252Z,2.12
2019-04-22T13:31:07.783Z,2.22
2019-04-22T13:32:13.182Z,2.43
2019-04-22T13:33:19.037Z,1.90
2019-04-22T13:34:30.391Z,2.50
2019-04-22T13:35:29.793Z,2.30
2019-04-22T13:36:34.594Z,2.35
2019-04-22T13:37:39.280Z,2.20
2019-04-22T13:38:44.835Z,2.15
2019-04-22T13:39:49.605Z,2.30
2019-04-22T13:41:07.315Z,2.33
2019-04-22T13:42:03.913Z,2.45
2019-04-22T13:43:07.133Z,2.30
2019-04-22T13:44:12.752Z,2.00
2019-04-22T13:45:17.893Z,2.30
2019-04-22T13:46:22.420Z,2.30
2019-04-22T13:47:42.105Z,2.10
2019-04-22T13:48:58.985Z,2.62
2019-04-22T13:50:18.221Z,2.30
2019-04-22T13:51:18.556Z,2.08
2019-04-22T13:52:35.165Z,2.40
2019-04-22T13:55:40.834Z,2.60
2019-04-22T13:56:37.344Z,2.20
2019-04-22T13:57:42.496Z,2.03
2019-04-22T13:58:44.747Z,2.33
2019-04-22T13:59:42.331Z,2.35
2019-04-22T14:00:42.552Z,2.45
2019-04-22T14:01:58.646Z,2.30
2019-04-22T14:03:22.395Z,2.22
2019-04-22T14:04:28.642Z,2.87
2019-04-22T14:05:35.022Z,2.60
2019-04-22T14:06:40.770Z,2.35
2019-04-22T14:07:45.023Z,2.25
2019-04-22T14:08:49.531Z,2.17
2019-04-22T14:09:54.111Z,2.10
2019-04-22T14:11:14.909Z,2.27
2019-04-22T14:12:07.624Z,2.15
2019-04-22T14:13:10.265Z,1.83
2019-04-22T14:14:15.610Z,2.20
2019-04-22T14:15:20.203Z,2.17
2019-04-22T14:16:24.827Z,2.20
2019-04-22T14:17:29.409Z,2.20
2019-04-22T14:18:34.931Z,2.02
2019-04-22T14:19:39.194Z,2.05
2019-04-22T14:20:44.965Z,2.02
2019-04-22T14:21:49.710Z,2.08
2019-04-22T14:22:54.749Z,1.80
2019-04-22T14:24:00.165Z,1.80
2019-04-22T14:25:06.939Z,1.65
2019-04-22T14:26:11.659Z,2.00
2019-04-22T14:27:27.897Z,1.63
2019-04-22T14:28:23.862Z,1.97
2019-04-22T14:29:29.325Z,1.87
2019-04-22T14:30:34.692Z,1.98
2019-04-22T14:31:40.366Z,2.30
2019-04-22T14:32:45.770Z,1.60
2019-04-22T14:33:54.856Z,1.90
2019-04-22T14:34:57.341Z,1.72
2019-04-22T14:36:02.551Z,1.50
2019-04-22T14:37:06.824Z,1.50
2019-04-22T14:38:12.268Z,1.80
2019-04-22T14:39:18.021Z,1.77
2019-04-22T14:40:23.031Z,2.08
2019-04-22T14:41:42.581Z,1.75
2019-04-22T14:42:56.382Z,1.77
2019-04-22T14:45:02.520Z,2.05
2019-04-22T14:45:26.127Z,1.85
2019-04-22T14:46:21.500Z,1.98
2019-04-22T14:47:26.023Z,1.50
2019-04-22T14:48:35.688Z,1.65
2019-04-22T14:49:37.055Z,1.53
2019-04-22T14:50:42.205Z,1.77
2019-04-22T14:51:49.843Z,1.70
2019-04-22T14:52:54.359Z,1.60
2019-04-22T14:53:55.559Z,1.80
2019-04-22T14:54:55.454Z,1.60
2019-04-22T14:55:50.533Z,1.70
2019-04-22T14:56:56.239Z,2.00
2019-04-22T14:58:01.147Z,1.52
2019-04-22T14:59:06.903Z,1.50
2019-04-22T15:00:15.523Z,1.50
2019-04-22T15:01:21.103Z,1.53
2019-04-22T15:02:25.627Z,1.80
2019-04-22T15:03:31.374Z,1.65
2019-04-22T15:04:37.215Z,1.70
2019-04-22T15:05:41.996Z,1.95
2019-04-22T15:06:48.387Z,2.02
2019-04-22T15:07:53.037Z,1.62
2019-04-22T15:08:59.603Z,1.72
2019-04-22T15:10:08.592Z,1.67
2019-04-22T15:11:13.206Z,1.80
2019-04-22T15:12:27.833Z,1.93
2019-04-22T15:13:23.478Z,1.70
2019-04-22T15:14:27.747Z,1.67
2019-04-22T15:15:34.416Z,1.80
2019-04-22T15:16:57.409Z,1.85
2019-04-22T15:18:03.213Z,2.10
2019-04-22T15:19:15.805Z,1.90
2019-04-22T15:20:21.736Z,1.90
2019-04-22T15:21:28.910Z,1.87
2019-04-22T15:22:34.586Z,1.65
2019-04-22T15:23:40.113Z,2.20
2019-04-22T15:24:45.041Z,1.77
2019-04-22T15:25:50.758Z,2.00
2019-04-22T15:26:56.366Z,1.62
2019-04-22T15:28:01.636Z,1.80
2019-04-22T15:29:07.113Z,1.98
2019-04-22T15:30:11.694Z,1.80
2019-04-22T15:31:17.371Z,2.00
2019-04-22T15:32:23.145Z,2.00
2019-04-22T15:33:27.783Z,1.77
2019-04-22T15:34:34.486Z,2.22
2019-04-22T15:35:38.836Z,2.15
2019-04-22T15:36:46.140Z,2.22
2019-04-22T15:37:51.130Z,2.08
2019-04-22T15:38:55.397Z,1.80
2019-04-22T15:40:00.668Z,1.80
2019-04-22T15:41:06.994Z,2.12
2019-04-22T15:42:19.707Z,1.90
2019-04-22T15:43:17.329Z,2.05
2019-04-22T15:44:21.979Z,1.60
2019-04-22T15:45:26.361Z,2.00
2019-04-22T15:46:31.937Z,1.75
2019-04-22T15:47:37.701Z,2.00
2019-04-22T15:48:42.173Z,2.17
2019-04-22T15:49:47.789Z,2.75
2019-04-22T15:50:52.986Z,2.60
2019-04-22T15:51:59.424Z,4.17
2019-04-22T15:53:04.558Z,3.18
2019-04-22T15:54:09.726Z,4.17
2019-04-22T15:55:14.630Z,3.42
2019-04-22T15:56:18.860Z,3.03
2019-04-22T15:57:22.994Z,4.30
2019-04-22T15:58:28.171Z,3.92
2019-04-22T15:59:50.497Z,3.12
2019-04-22T16:00:51.692Z,3.35
2019-04-22T16:01:46.765Z,3.10
2019-04-22T16:02:52.025Z,2.80
2019-04-22T16:03:56.606Z,2.60
2019-04-22T16:05:02.512Z,2.80
2019-04-22T16:06:08.319Z,4.28
2019-04-22T16:07:12.833Z,5.83
2019-04-22T16:08:17.272Z,5.03
2019-04-22T16:09:22.753Z,3.00